Time;durP1;ratioP1;P1;durP2;ratioP2;P2;SDS_P1;SDS_P2;PMS_P1;PMS_P2;Temp;Humidity;BMP_temperature;BMP_pressure;BME280_temperature;BME280_humidity;BME280_pressure;Samples;Min_cycle;Max_cycle;Signal;HPM_P1;HPM_P2
2021/12/10 00:01:58;;;;;;;;;;;21.20;46.50;;;;;;6210526;28;26058;-42
2021/12/10 00:05:01;;;;;;;;;;;21.40;45.70;;;;;;6207484;28;19928;-42
2021/12/10 00:08:03;;;;;;;;;;;21.20;46.30;;;;;;6231107;28;20034;-42
2021/12/10 00:11:07;;;;;;;;;;;20.90;46.20;;;;;;6227887;28;19938;-43
2021/12/10 00:14:09;;;;;;;;;;;21.00;46.30;;;;;;6208571;28;19960;-42
2021/12/10 00:17:11;;;;;;;;;;;21.00;46.20;;;;;;6238815;28;20051;-42
2021/12/10 00:20:15;;;;;;;;;;;21.40;46.50;;;;;;6240645;28;19920;-44
2021/12/10 00:23:19;;;;;;;;;;;21.00;46.30;;;;;;6236987;28;19930;-43
2021/12/10 00:26:22;;;;;;;;;;;21.20;46.60;;;;;;6200729;28;19941;-42
2021/12/10 00:29:25;;;;;;;;;;;21.40;45.00;;;;;;6232120;28;20038;-44
2021/12/10 00:32:31;;;;;;;;;;;21.80;46.80;;;;;;6236639;28;19932;-42
2021/12/10 00:35:33;;;;;;;;;;;21.60;46.70;;;;;;6226476;28;19978;-42
2021/12/10 00:38:35;;;;;;;;;;;21.30;46.50;;;;;;6235063;28;19928;-42
2021/12/10 00:41:37;;;;;;;;;;;20.50;46.10;;;;;;6217764;28;19924;-43
2021/12/10 00:44:39;;;;;;;;;;;21.10;46.50;;;;;;6234386;28;20704;-42
2021/12/10 00:47:41;;;;;;;;;;;20.90;46.30;;;;;;6231946;28;20828;-44
2021/12/10 00:50:46;;;;;;;;;;;20.80;46.90;;;;;;6218124;28;20933;-42
2021/12/10 00:53:48;;;;;;;;;;;21.10;46.50;;;;;;6237314;28;19921;-43
2021/12/10 00:56:49;;;;;;;;;;;21.30;45.80;;;;;;6246225;28;19934;-42
2021/12/10 00:59:51;;;;;;;;;;;20.90;46.40;;;;;;6215456;28;19928;-42
2021/12/10 01:02:54;;;;;;;;;;;21.20;46.50;;;;;;6218689;28;20054;-42
2021/12/10 01:06:00;;;;;;;;;;;21.30;45.60;;;;;;6201304;28;19940;-42
2021/12/10 01:09:05;;;;;;;;;;;20.90;46.50;;;;;;6219779;28;19985;-42
2021/12/10 01:12:08;;;;;;;;;;;20.70;46.30;;;;;;6235271;28;19920;-42
2021/12/10 01:15:34;;;;;;;;;;;21.20;46.60;;;;;;6235856;28;19970;-42
2021/12/10 01:25:25;;;;;;;;;;;20.80;46.50;;;;;;6240639;28;19935;-41
2021/12/10 01:28:26;;;;;;;;;;;21.20;46.60;;;;;;6237347;28;20009;-42
2021/12/10 01:31:27;;;;;;;;;;;20.80;46.50;;;;;;6237879;28;20042;-42
2021/12/10 01:34:29;;;;;;;;;;;21.20;46.70;;;;;;6237686;28;19998;-44
2021/12/10 01:37:31;;;;;;;;;;;21.30;46.70;;;;;;6238799;28;20055;-44
2021/12/10 01:40:34;;;;;;;;;;;21.00;46.60;;;;;;6224065;28;19928;-42
2021/12/10 01:43:38;;;;;;;;;;;21.00;46.50;;;;;;6233843;28;19928;-42
2021/12/10 01:46:40;;;;;;;;;;;20.90;46.50;;;;;;6240087;28;20058;-43
2021/12/10 01:49:43;;;;;;;;;;;20.80;46.50;;;;;;6226421;28;19928;-43
2021/12/10 01:52:48;;;;;;;;;;;20.80;46.60;;;;;;6238775;28;19943;-42
2021/12/10 01:55:51;;;;;;;;;;;21.10;46.80;;;;;;6239448;28;19928;-44
2021/12/10 01:58:53;;;;;;;;;;;20.70;46.60;;;;;;6237658;28;20031;-42
2021/12/10 02:01:56;;;;;;;;;;;20.70;46.60;;;;;;6224039;28;19929;-42
2021/12/10 02:04:58;;;;;;;;;;;21.10;46.80;;;;;;6221288;28;19978;-44
2021/12/10 02:08:00;;;;;;;;;;;20.90;46.70;;;;;;6236109;28;19956;-42
2021/12/10 02:11:02;;;;;;;;;;;20.50;46.50;;;;;;6225837;28;19924;-41
2021/12/10 02:14:03;;;;;;;;;;;20.60;46.60;;;;;;6224855;28;19928;-42
2021/12/10 02:17:05;;;;;;;;;;;20.70;47.30;;;;;;6206998;28;19975;-41
2021/12/10 02:20:09;;;;;;;;;;;21.20;46.80;;;;;;6220991;28;20720;-42
2021/12/10 02:23:11;;;;;;;;;;;21.10;46.80;;;;;;6211544;28;20217;-42
2021/12/10 02:26:14;;;;;;;;;;;21.00;47.00;;;;;;6230824;28;20353;-42
2021/12/10 02:29:15;;;;;;;;;;;20.90;46.70;;;;;;6226957;28;20042;-42
2021/12/10 02:32:17;;;;;;;;;;;20.60;46.50;;;;;;6211799;28;20369;-41
2021/12/10 02:35:18;;;;;;;;;;;21.10;47.00;;;;;;6228764;28;20253;-43
2021/12/10 02:38:22;;;;;;;;;;;21.00;46.80;;;;;;6228380;28;20037;-43
2021/12/10 02:41:25;;;;;;;;;;;21.00;46.90;;;;;;6212116;28;20073;-42
2021/12/10 02:44:28;;;;;;;;;;;20.50;46.50;;;;;;6227545;28;20613;-41
2021/12/10 02:47:29;;;;;;;;;;;21.00;46.70;;;;;;6227861;28;20198;-42
2021/12/10 02:50:32;;;;;;;;;;;20.70;46.80;;;;;;6226602;28;20323;-42
2021/12/10 02:53:41;;;;;;;;;;;21.00;46.80;;;;;;6223766;28;19959;-42
2021/12/10 02:56:45;;;;;;;;;;;20.70;46.80;;;;;;6211109;28;20484;-41
2021/12/10 02:59:46;;;;;;;;;;;20.90;46.70;;;;;;6226494;28;20498;-42
2021/12/10 03:02:48;;;;;;;;;;;20.80;46.80;;;;;;6229626;28;19931;-41
2021/12/10 03:05:49;;;;;;;;;;;21.10;47.00;;;;;;6190346;28;19935;-43
2021/12/10 03:08:53;;;;;;;;;;;21.10;46.30;;;;;;6213805;28;20350;-42
2021/12/10 03:11:56;;;;;;;;;;;20.90;46.90;;;;;;6199822;28;20094;-42
2021/12/10 03:14:58;;;;;;;;;;;20.60;46.60;;;;;;6225760;28;20031;-42
2021/12/10 03:18:00;;;;;;;;;;;20.60;46.80;;;;;;6230408;28;19963;-42
2021/12/10 03:21:02;;;;;;;;;;;20.50;46.50;;;;;;6212184;28;20509;-42
2021/12/10 03:24:05;;;;;;;;;;;21.00;46.80;;;;;;6230992;28;20081;-41
2021/12/10 03:27:08;;;;;;;;;;;20.40;46.60;;;;;;6213717;28;20770;-41
2021/12/10 03:30:11;;;;;;;;;;;20.90;46.90;;;;;;6222100;28;19928;-42
2021/12/10 03:33:13;;;;;;;;;;;20.50;46.50;;;;;;6200455;28;21077;-42
2021/12/10 03:36:14;;;;;;;;;;;20.60;46.60;;;;;;6235850;28;19932;-42
2021/12/10 03:39:20;;;;;;;;;;;21.00;46.80;;;;;;6241140;28;19925;-42
2021/12/10 03:42:23;;;;;;;;;;;20.60;46.80;;;;;;6234643;28;20138;-42
2021/12/10 03:45:26;;;;;;;;;;;20.50;46.60;;;;;;6225492;28;20043;-41
2021/12/10 03:48:28;;;;;;;;;;;20.90;46.90;;;;;;6224309;28;19928;-41
2021/12/10 03:51:31;;;;;;;;;;;20.50;46.70;;;;;;6217220;28;20094;-42
2021/12/10 03:54:33;;;;;;;;;;;20.90;46.90;;;;;;6202081;28;20590;-41
2021/12/10 03:57:34;;;;;;;;;;;20.40;46.70;;;;;;6203514;28;20232;-42
2021/12/10 04:00:38;;;;;;;;;;;20.50;46.80;;;;;;6215892;28;19928;-42
2021/12/10 04:03:45;;;;;;;;;;;20.50;46.60;;;;;;6224965;28;20279;-41
2021/12/10 04:06:47;;;;;;;;;;;20.80;46.90;;;;;;6201433;28;19958;-42
2021/12/10 04:09:49;;;;;;;;;;;20.80;46.90;;;;;;6220000;28;19928;-42
2021/12/10 04:12:51;;;;;;;;;;;20.80;47.00;;;;;;6227371;28;20358;-42
2021/12/10 04:15:52;;;;;;;;;;;20.40;46.70;;;;;;6238486;28;20841;-42
2021/12/10 04:18:54;;;;;;;;;;;20.30;46.80;;;;;;6240732;28;19924;-42
2021/12/10 04:21:57;;;;;;;;;;;20.60;46.80;;;;;;6226879;28;20197;-42
2021/12/10 04:24:59;;;;;;;;;;;20.70;46.80;;;;;;6227748;28;20335;-41
2021/12/10 04:28:02;;;;;;;;;;;20.70;46.90;;;;;;6235896;28;19975;-44
2021/12/10 04:31:03;;;;;;;;;;;20.50;46.80;;;;;;6222954;28;19934;-42
2021/12/10 04:34:05;;;;;;;;;;;20.50;46.80;;;;;;6222742;28;19929;-42
2021/12/10 04:37:08;;;;;;;;;;;20.50;46.80;;;;;;6191730;28;20113;-43
2021/12/10 04:40:12;;;;;;;;;;;20.80;46.40;;;;;;6229846;28;21436;-42
2021/12/10 04:43:13;;;;;;;;;;;20.80;47.00;;;;;;6224768;28;19928;-42
2021/12/10 04:46:15;;;;;;;;;;;20.30;46.70;;;;;;6226429;28;19928;-41
2021/12/10 04:49:17;;;;;;;;;;;20.50;46.70;;;;;;6229127;28;19928;-43
2021/12/10 04:52:18;;;;;;;;;;;20.30;46.70;;;;;;6228704;28;20071;-42
2021/12/10 04:55:22;;;;;;;;;;;20.80;47.00;;;;;;6232831;28;19963;-42
2021/12/10 04:58:24;;;;;;;;;;;20.30;46.70;;;;;;6220559;28;20051;-42
2021/12/10 05:01:26;;;;;;;;;;;19.90;46.50;;;;;;6227384;28;19928;-42
2021/12/10 05:04:28;;;;;;;;;;;20.30;46.80;;;;;;6235211;28;20296;-42
2021/12/10 05:07:33;;;;;;;;;;;20.40;46.60;;;;;;6232085;28;20057;-42
2021/12/10 05:10:36;;;;;;;;;;;21.30;47.20;;;;;;6234912;28;20048;-42
2021/12/10 05:13:39;;;;;;;;;;;20.60;47.00;;;;;;6218856;28;19920;-43
2021/12/10 05:16:44;;;;;;;;;;;20.40;46.70;;;;;;6208059;28;19925;-43
2021/12/10 05:19:47;;;;;;;;;;;20.70;46.90;;;;;;6235870;28;20026;-42
2021/12/10 05:22:49;;;;;;;;;;;20.40;47.20;;;;;;6238711;28;19993;-42
2021/12/10 05:25:51;;;;;;;;;;;20.50;46.60;;;;;;6230143;28;19929;-42
2021/12/10 05:28:53;;;;;;;;;;;20.60;46.80;;;;;;6231150;28;19928;-42
2021/12/10 05:31:56;;;;;;;;;;;20.40;46.60;;;;;;6230622;28;19927;-42
2021/12/10 05:34:57;;;;;;;;;;;20.20;46.60;;;;;;6234410;28;19956;-42
2021/12/10 05:37:59;;;;;;;;;;;20.30;46.80;;;;;;6234538;28;20036;-44
2021/12/10 05:41:05;;;;;;;;;;;21.10;47.00;;;;;;6195237;28;19977;-43
2021/12/10 05:44:06;;;;;;;;;;;20.20;46.60;;;;;;6214827;28;20775;-42
2021/12/10 05:47:08;;;;;;;;;;;20.20;46.70;;;;;;6211060;28;20478;-42
2021/12/10 05:50:10;;;;;;;;;;;20.60;46.90;;;;;;6222080;28;19928;-41
2021/12/10 05:53:12;;;;;;;;;;;20.40;46.70;;;;;;6207407;28;20048;-42
2021/12/10 05:56:14;;;;;;;;;;;20.70;47.00;;;;;;6215390;28;20046;-42
2021/12/10 05:59:16;;;;;;;;;;;20.60;46.90;;;;;;6220734;28;19929;-44
2021/12/10 06:02:17;;;;;;;;;;;20.60;46.80;;;;;;6213302;28;20014;-42
2021/12/10 06:05:20;;;;;;;;;;;20.30;46.70;;;;;;6206895;28;19935;-42
2021/12/10 06:08:23;;;;;;;;;;;20.30;46.70;;;;;;6233061;28;19924;-42
2021/12/10 06:11:26;;;;;;;;;;;20.80;46.40;;;;;;6229708;28;19934;-42
2021/12/10 06:14:27;;;;;;;;;;;20.60;46.90;;;;;;6216081;28;20073;-42
2021/12/10 06:17:29;;;;;;;;;;;20.40;46.80;;;;;;6234358;28;19971;-43
2021/12/10 06:20:32;;;;;;;;;;;20.40;46.80;;;;;;6236472;28;19929;-42
2021/12/10 06:23:33;;;;;;;;;;;20.30;46.60;;;;;;6233720;28;19926;-42
2021/12/10 06:26:35;;;;;;;;;;;20.20;46.70;;;;;;6232521;28;19924;-41
2021/12/10 06:29:41;;;;;;;;;;;20.20;46.70;;;;;;6231439;28;19928;-42
2021/12/10 06:32:43;;;;;;;;;;;20.40;46.80;;;;;;6228151;28;19924;-42
2021/12/10 06:35:46;;;;;;;;;;;20.60;46.90;;;;;;6213609;28;19963;-42
2021/12/10 06:38:48;;;;;;;;;;;20.70;47.00;;;;;;6192390;28;19929;-42
2021/12/10 06:41:51;;;;;;;;;;;20.70;46.20;;;;;;6217086;28;20615;-42
2021/12/10 06:44:52;;;;;;;;;;;20.30;46.80;;;;;;6186806;28;19979;-42
2021/12/10 06:47:58;;;;;;;;;;;20.20;46.70;;;;;;6223650;28;20042;-44
2021/12/10 06:51:00;;;;;;;;;;;20.30;46.60;;;;;;6225538;28;19930;-42
2021/12/10 06:54:02;;;;;;;;;;;20.20;46.60;;;;;;6225099;28;19928;-42
2021/12/10 06:57:04;;;;;;;;;;;20.30;46.50;;;;;;6221969;28;20026;-42
2021/12/10 07:00:06;;;;;;;;;;;20.30;46.40;;;;;;6220730;28;20054;-42
2021/12/10 07:03:08;;;;;;;;;;;20.60;46.50;;;;;;6218372;28;19924;-42
2021/12/10 07:06:09;;;;;;;;;;;20.30;46.10;;;;;;6219286;28;19931;-42
2021/12/10 07:09:12;;;;;;;;;;;20.50;46.00;;;;;;6207058;28;19949;-42
2021/12/10 07:12:14;;;;;;;;;;;20.70;46.20;;;;;;6217938;28;19920;-42
2021/12/10 07:15:15;;;;;;;;;;;20.70;46.30;;;;;;6195301;28;19934;-44
2021/12/10 07:18:22;;;;;;;;;;;20.50;46.00;;;;;;6198520;28;19929;-43
2021/12/10 07:21:25;;;;;;;;;;;20.90;46.20;;;;;;6204786;28;19957;-42
2021/12/10 07:24:27;;;;;;;;;;;20.80;46.00;;;;;;6147506;28;19987;-42
2021/12/10 07:27:29;;;;;;;;;;;20.50;45.70;;;;;;6179306;28;19935;-41
2021/12/10 07:30:31;;;;;;;;;;;20.60;45.80;;;;;;6207137;28;19935;-42
2021/12/10 07:33:41;;;;;;;;;;;20.90;46.30;;;;;;6205260;28;19942;-41
2021/12/10 07:36:42;;;;;;;;;;;21.10;43.50;;;;;;6198085;28;21183;-42
2021/12/10 07:39:43;;;;;;;;;;;20.80;45.70;;;;;;6181490;28;19924;-41
2021/12/10 07:42:46;;;;;;;;;;;20.60;45.70;;;;;;6173222;28;19928;-42
2021/12/10 07:45:48;;;;;;;;;;;20.70;45.80;;;;;;6146991;28;20025;-42
2021/12/10 07:48:49;;;;;;;;;;;20.80;45.60;;;;;;6162863;28;30328;-42
2021/12/10 07:51:50;;;;;;;;;;;20.60;45.60;;;;;;6182158;28;45174;-43
2021/12/10 07:54:52;;;;;;;;;;;21.00;45.80;;;;;;6199427;28;40746;-41
2021/12/10 07:57:54;;;;;;;;;;;20.50;45.40;;;;;;6162393;28;41543;-41
2021/12/10 08:00:56;;;;;;;;;;;20.90;45.60;;;;;;6141920;28;20004;-41
2021/12/10 08:03:59;;;;;;;;;;;21.10;45.50;;;;;;6108851;28;19928;-42
2021/12/10 08:07:00;;;;;;;;;;;20.50;45.00;;;;;;6098268;28;27994;-42
2021/12/10 08:10:02;;;;;;;;;;;21.30;45.70;;;;;;6118547;28;21062;-40
2021/12/10 08:13:04;;;;;;;;;;;21.40;44.40;;;;;;6117918;28;19928;-40
2021/12/10 08:16:05;;;;;;;;;;;21.30;45.50;;;;;;6094713;28;20541;-40
2021/12/10 08:19:07;;;;;;;;;;;21.40;45.60;;;;;;6117118;28;22678;-40
2021/12/10 08:22:08;;;;;;;;;;;20.50;45.10;;;;;;6119608;28;19970;-40
2021/12/10 08:25:10;;;;;;;;;;;21.30;45.50;;;;;;6095735;28;48798;-41
2021/12/10 08:28:15;;;;;;;;;;;20.80;45.10;;;;;;6107798;28;19928;-40
2021/12/10 08:31:17;;;;;;;;;;;21.30;45.40;;;;;;6128663;28;19933;-41
2021/12/10 08:34:19;;;;;;;;;;;21.40;45.40;;;;;;6100356;28;20790;-40
2021/12/10 08:37:20;;;;;;;;;;;21.00;45.10;;;;;;6094970;28;21664;-41
2021/12/10 08:40:26;;;;;;;;;;;21.50;44.80;;;;;;6118291;28;21779;-40
2021/12/10 08:43:31;;;;;;;;;;;21.30;45.30;;;;;;6120482;28;21006;-40
2021/12/10 08:46:33;;;;;;;;;;;21.20;45.30;;;;;;6136474;28;19940;-41
2021/12/10 08:49:35;;;;;;;;;;;21.00;45.10;;;;;;6123365;28;20001;-41
2021/12/10 08:52:36;;;;;;;;;;;21.40;45.30;;;;;;6114849;28;19928;-40
2021/12/10 08:55:40;;;;;;;;;;;21.10;45.10;;;;;;6107822;28;19928;-40
2021/12/10 08:58:42;;;;;;;;;;;21.50;44.90;;;;;;6127832;28;20110;-41
2021/12/10 09:01:46;;;;;;;;;;;21.40;45.20;;;;;;6095651;28;20006;-40
2021/12/10 09:04:50;;;;;;;;;;;21.00;45.00;;;;;;6110681;28;19970;-41
2021/12/10 09:07:52;;;;;;;;;;;21.30;45.00;;;;;;6121215;28;19929;-40
2021/12/10 09:10:53;;;;;;;;;;;21.20;42.50;;;;;;6121346;28;19928;-40
2021/12/10 09:13:55;;;;;;;;;;;21.40;45.80;;;;;;6132089;28;19932;-40
2021/12/10 09:16:58;;;;;;;;;;;21.20;44.60;;;;;;6119717;28;20383;-41
2021/12/10 09:20:01;;;;;;;;;;;21.40;45.00;;;;;;6107953;28;23772;-40
2021/12/10 09:23:03;;;;;;;;;;;21.80;45.20;;;;;;6130889;28;19928;-40
2021/12/10 09:26:06;;;;;;;;;;;21.30;45.10;;;;;;6122023;28;20051;-40
2021/12/10 09:29:10;;;;;;;;;;;20.80;44.70;;;;;;6132286;28;19929;-41
2021/12/10 09:32:13;;;;;;;;;;;21.60;45.00;;;;;;6076566;28;19966;-40
2021/12/10 09:35:16;;;;;;;;;;;21.60;45.10;;;;;;6113280;28;21163;-41
2021/12/10 09:38:19;;;;;;;;;;;21.50;45.00;;;;;;6122092;28;19934;-41
2021/12/10 09:41:21;;;;;;;;;;;21.30;44.90;;;;;;6130605;28;20047;-41
2021/12/10 09:44:24;;;;;;;;;;;21.60;45.00;;;;;;6117798;28;20390;-40
2021/12/10 09:47:25;;;;;;;;;;;21.30;44.70;;;;;;6102497;28;19929;-41
2021/12/10 09:50:30;;;;;;;;;;;21.80;44.90;;;;;;6128086;28;19928;-41
2021/12/10 09:53:33;;;;;;;;;;;22.20;45.20;;;;;;6125713;28;20021;-40
2021/12/10 09:56:34;;;;;;;;;;;21.70;44.90;;;;;;6143180;28;20457;-42
2021/12/10 09:59:37;;;;;;;;;;;21.20;44.60;;;;;;6150071;28;25439;-41
2021/12/10 10:02:39;;;;;;;;;;;21.30;44.60;;;;;;6143123;28;19928;-41
2021/12/10 10:05:43;;;;;;;;;;;21.90;44.60;;;;;;6122133;28;24342;-40
2021/12/10 10:08:45;;;;;;;;;;;21.60;44.80;;;;;;6126153;28;19928;-40
2021/12/10 10:11:53;;;;;;;;;;;21.50;44.50;;;;;;6133058;28;19933;-40
2021/12/10 10:14:55;;;;;;;;;;;21.30;44.50;;;;;;6139096;28;19929;-40
2021/12/10 10:18:20;;;;;;;;;;;21.70;44.40;;;;;;6114828;28;21162;-41
2021/12/10 10:21:23;;;;;;;;;;;21.40;44.40;;;;;;6127460;28;21175;-40
2021/12/10 10:24:26;;;;;;;;;;;21.80;44.60;;;;;;6098721;28;20010;-40
2021/12/10 10:27:31;;;;;;;;;;;21.50;44.50;;;;;;6089408;28;19970;-40
2021/12/10 10:30:35;;;;;;;;;;;21.40;44.30;;;;;;6118790;28;21125;-40
2021/12/10 10:33:37;;;;;;;;;;;21.70;44.50;;;;;;6112257;28;19928;-40
2021/12/10 10:36:39;;;;;;;;;;;21.60;44.50;;;;;;6142683;28;19933;-40
2021/12/10 10:39:43;;;;;;;;;;;21.60;44.50;;;;;;6137671;28;22060;-40
2021/12/10 10:42:44;;;;;;;;;;;21.90;44.60;;;;;;6131150;28;19936;-41
2021/12/10 10:45:46;;;;;;;;;;;21.60;44.50;;;;;;6145726;28;19935;-40
2021/12/10 10:48:48;;;;;;;;;;;21.80;43.70;;;;;;6109869;28;21107;-40
2021/12/10 10:51:53;;;;;;;;;;;22.10;44.60;;;;;;6147424;28;21482;-41
2021/12/10 10:54:56;;;;;;;;;;;22.60;43.80;;;;;;6115272;28;19929;-41
2021/12/10 10:58:01;;;;;;;;;;;21.30;44.10;;;;;;6099863;28;47190;-41
2021/12/10 11:01:10;;;;;;;;;;;21.70;41.80;;;;;;6129928;28;19928;-41
2021/12/10 11:04:33;;;;;;;;;;;21.50;44.30;;;;;;6101550;28;20759;-40
2021/12/10 11:07:42;;;;;;;;;;;22.00;44.30;;;;;;6101854;28;20060;-41
2021/12/10 11:10:45;;;;;;;;;;;21.90;44.50;;;;;;6099031;28;20010;-40
2021/12/10 11:13:50;;;;;;;;;;;21.60;44.40;;;;;;6115809;28;19936;-40
2021/12/10 11:16:53;;;;;;;;;;;21.70;44.30;;;;;;6160216;28;19934;-40
2021/12/10 11:20:17;;;;;;;;;;;21.70;44.20;;;;;;6111496;28;19986;-41
2021/12/10 11:23:25;;;;;;;;;;;21.30;44.00;;;;;;6128012;28;19935;-39
2021/12/10 11:26:27;;;;;;;;;;;21.50;44.40;;;;;;6135362;28;19932;-40
2021/12/10 11:29:32;;;;;;;;;;;22.20;44.60;;;;;;6137039;28;19929;-40
2021/12/10 11:32:35;;;;;;;;;;;22.00;44.40;;;;;;6159979;28;20001;-41
2021/12/10 11:35:39;;;;;;;;;;;22.00;44.60;;;;;;6144328;28;19936;-41
2021/12/10 11:38:41;;;;;;;;;;;21.50;44.30;;;;;;6169186;28;19928;-41
2021/12/10 11:41:43;;;;;;;;;;;21.90;44.50;;;;;;6140645;28;19928;-41
2021/12/10 11:45:04;;;;;;;;;;;22.20;44.80;;;;;;6146018;28;19929;-40
2021/12/10 11:48:10;;;;;;;;;;;21.80;44.40;;;;;;6170236;28;20074;-41
2021/12/10 11:51:13;;;;;;;;;;;21.70;44.40;;;;;;6170259;28;19964;-41
2021/12/10 11:54:19;;;;;;;;;;;22.00;44.30;;;;;;6163011;28;19935;-40
2021/12/10 11:57:22;;;;;;;;;;;21.60;44.10;;;;;;6167311;28;42160;-40
2021/12/10 12:00:25;;;;;;;;;;;21.60;44.10;;;;;;6177954;28;19928;-41
2021/12/10 12:03:29;;;;;;;;;;;22.20;44.40;;;;;;6173426;28;20042;-41
2021/12/10 12:06:31;;;;;;;;;;;22.30;44.40;;;;;;6159533;28;20802;-40
2021/12/10 12:09:37;;;;;;;;;;;22.10;43.80;;;;;;6175624;28;19949;-41
2021/12/10 12:12:40;;;;;;;;;;;21.90;44.30;;;;;;6151566;28;19928;-40
2021/12/10 12:15:43;;;;;;;;;;;22.00;44.30;;;;;;6178724;28;19983;-41
2021/12/10 12:18:46;;;;;;;;;;;22.00;44.20;;;;;;6185823;28;19968;-41
2021/12/10 12:25:22;;;;;;;;;;;21.60;43.30;;;;;;6180206;28;19928;-40
2021/12/10 12:28:30;;;;;;;;;;;22.20;43.60;;;;;;6159660;28;21241;-40
2021/12/10 12:31:53;;;;;;;;;;;22.20;44.30;;;;;;6145120;28;20314;-40
2021/12/10 12:34:55;;;;;;;;;;;22.20;44.20;;;;;;6142513;28;21147;-40
2021/12/10 12:38:14;;;;;;;;;;;22.00;44.20;;;;;;6162903;28;19924;-41
2021/12/10 12:41:36;;;;;;;;;;;21.50;43.60;;;;;;6151093;28;19970;-41
2021/12/10 12:44:40;;;;;;;;;;;22.10;44.10;;;;;;6141034;28;19928;-40
2021/12/10 12:48:04;;;;;;;;;;;21.60;43.80;;;;;;6144639;28;19936;-40
2021/12/10 12:51:21;;;;;;;;;;;21.80;44.00;;;;;;6115923;28;19928;-40
2021/12/10 12:54:22;;;;;;;;;;;22.40;43.90;;;;;;6126572;28;20277;-41
2021/12/10 12:57:34;;;;;;;;;;;22.00;43.90;;;;;;6120937;28;34042;-43
2021/12/10 13:00:58;;;;;;;;;;;21.60;43.60;;;;;;6097797;28;20694;-39
2021/12/10 13:04:03;;;;;;;;;;;22.10;44.00;;;;;;6132454;28;19929;-40
2021/12/10 13:07:27;;;;;;;;;;;22.20;43.70;;;;;;6081324;28;19928;-43
2021/12/10 13:10:29;;;;;;;;;;;22.00;44.40;;;;;;6112003;28;20451;-41
2021/12/10 13:13:31;;;;;;;;;;;21.70;43.90;;;;;;6114976;28;19935;-40
2021/12/10 13:16:37;;;;;;;;;;;22.00;43.80;;;;;;6111864;28;22911;-39
2021/12/10 13:19:38;;;;;;;;;;;22.70;44.20;;;;;;6113503;28;38210;-41
2021/12/10 13:22:42;;;;;;;;;;;22.30;43.90;;;;;;6107065;28;37206;-41
2021/12/10 13:25:44;;;;;;;;;;;22.00;43.80;;;;;;6111519;28;31386;-41
2021/12/10 13:28:46;;;;;;;;;;;22.30;43.80;;;;;;6095271;28;39571;-42
2021/12/10 13:31:47;;;;;;;;;;;22.60;44.00;;;;;;6132915;28;21059;-42
2021/12/10 13:34:49;;;;;;;;;;;22.40;43.60;;;;;;6132824;28;19971;-43
2021/12/10 13:37:52;;;;;;;;;;;22.40;43.00;;;;;;6138099;28;40611;-42
2021/12/10 13:40:54;;;;;;;;;;;22.80;43.70;;;;;;6133402;28;21863;-40
2021/12/10 13:44:07;;;;;;;;;;;21.90;43.20;;;;;;6141334;28;19975;-44
2021/12/10 13:47:20;;;;;;;;;;;22.40;43.60;;;;;;6126148;28;19943;-43
2021/12/10 13:50:23;;;;;;;;;;;22.80;43.70;;;;;;6119912;28;20053;-40
2021/12/10 13:53:26;;;;;;;;;;;22.60;43.60;;;;;;6113746;28;37704;-40
2021/12/10 13:56:28;;;;;;;;;;;22.00;43.20;;;;;;6109823;28;19942;-43
2021/12/10 13:59:33;;;;;;;;;;;22.20;43.30;;;;;;6098172;28;19928;-40
2021/12/10 14:02:36;;;;;;;;;;;22.20;43.20;;;;;;6101085;28;20059;-39
2021/12/10 14:05:41;;;;;;;;;;;22.10;43.20;;;;;;6081701;28;19970;-39
2021/12/10 14:08:45;;;;;;;;;;;22.60;43.40;;;;;;6141165;28;20047;-39
2021/12/10 14:12:01;;;;;;;;;;;22.80;43.60;;;;;;6134972;28;21200;-40
2021/12/10 14:15:11;;;;;;;;;;;22.70;43.50;;;;;;6095218;28;19928;-41
2021/12/10 14:18:16;;;;;;;;;;;22.40;43.30;;;;;;6143403;28;20077;-39
2021/12/10 14:21:43;;;;;;;;;;;22.30;43.30;;;;;;6113214;28;20010;-39
2021/12/10 14:25:14;;;;;;;;;;;22.60;43.40;;;;;;6129946;28;19962;-41
2021/12/10 14:28:39;;;;;;;;;;;21.80;43.20;;;;;;6130543;28;33528;-41
2021/12/10 14:32:00;;;;;;;;;;;22.60;43.50;;;;;;6125459;28;19975;-41
2021/12/10 14:35:05;;;;;;;;;;;22.20;43.50;;;;;;6143949;28;19966;-41
2021/12/10 14:38:08;;;;;;;;;;;22.40;43.30;;;;;;6138836;28;21231;-41
2021/12/10 14:41:38;;;;;;;;;;;22.70;43.40;;;;;;6116461;28;19928;-42
2021/12/10 14:44:41;;;;;;;;;;;22.60;43.20;;;;;;6121535;28;19928;-40
2021/12/10 14:47:43;;;;;;;;;;;22.20;43.00;;;;;;6112746;28;19935;-42
2021/12/10 14:51:06;;;;;;;;;;;22.50;42.50;;;;;;6117759;28;20033;-41
2021/12/10 14:54:28;;;;;;;;;;;22.90;43.20;;;;;;6078116;28;21124;-41
2021/12/10 14:57:53;;;;;;;;;;;22.90;43.70;;;;;;6139969;28;20126;-39
2021/12/10 15:01:16;;;;;;;;;;;22.90;42.90;;;;;;6102802;28;21165;-40
2021/12/10 15:04:47;;;;;;;;;;;22.90;42.90;;;;;;6146839;28;19932;-39
2021/12/10 15:08:10;;;;;;;;;;;22.50;42.80;;;;;;6117223;28;19935;-40
2021/12/10 15:11:33;;;;;;;;;;;22.80;43.00;;;;;;6106097;28;21057;-40
2021/12/10 15:14:57;;;;;;;;;;;23.10;43.20;;;;;;6137636;28;19928;-40
2021/12/10 15:17:58;;;;;;;;;;;22.80;43.00;;;;;;6143572;28;21056;-40
2021/12/10 15:21:08;;;;;;;;;;;22.70;43.20;;;;;;6143860;28;21031;-40
2021/12/10 15:24:14;;;;;;;;;;;22.50;43.00;;;;;;6135712;28;19964;-40
2021/12/10 15:27:18;;;;;;;;;;;22.40;43.00;;;;;;6151432;28;28628;-40
2021/12/10 15:30:22;;;;;;;;;;;22.70;43.20;;;;;;6156642;28;20935;-40
2021/12/10 15:33:25;;;;;;;;;;;23.00;43.00;;;;;;6120019;28;19928;-40
2021/12/10 15:36:27;;;;;;;;;;;22.40;43.20;;;;;;6139721;28;19929;-41
2021/12/10 15:39:28;;;;;;;;;;;22.50;43.10;;;;;;6161104;28;19935;-42
2021/12/10 15:42:31;;;;;;;;;;;22.30;43.10;;;;;;6147309;28;19928;-40
2021/12/10 15:45:34;;;;;;;;;;;22.80;43.30;;;;;;6134719;28;19929;-40
2021/12/10 15:48:37;;;;;;;;;;;22.30;43.10;;;;;;6147308;28;20058;-39
2021/12/10 15:51:41;;;;;;;;;;;22.70;43.30;;;;;;6139327;28;20112;-40
2021/12/10 15:54:44;;;;;;;;;;;22.90;43.40;;;;;;6135020;28;21099;-40
2021/12/10 15:57:46;;;;;;;;;;;22.40;43.20;;;;;;6133242;28;19978;-39
2021/12/10 16:00:49;;;;;;;;;;;22.90;43.50;;;;;;6143293;28;19928;-40
2021/12/10 16:03:59;;;;;;;;;;;22.30;43.20;;;;;;6136823;28;19928;-40
2021/12/10 16:07:02;;;;;;;;;;;22.80;43.60;;;;;;6114649;28;20421;-40
2021/12/10 16:10:05;;;;;;;;;;;22.50;42.80;;;;;;6124599;28;19928;-40
2021/12/10 16:13:08;;;;;;;;;;;22.30;43.10;;;;;;6146868;28;19929;-40
2021/12/10 16:16:12;;;;;;;;;;;22.80;43.50;;;;;;6163050;28;19935;-41
2021/12/10 16:19:34;;;;;;;;;;;22.70;43.50;;;;;;6181897;28;20847;-40
2021/12/10 16:22:36;;;;;;;;;;;22.40;43.20;;;;;;6162437;28;21055;-40
2021/12/10 16:25:39;;;;;;;;;;;22.20;43.20;;;;;;6161800;28;20737;-40
2021/12/10 16:28:42;;;;;;;;;;;22.50;43.40;;;;;;6156684;28;19928;-40
2021/12/10 16:31:45;;;;;;;;;;;22.60;43.40;;;;;;6166831;28;20013;-41
2021/12/10 16:34:48;;;;;;;;;;;22.30;43.30;;;;;;6167419;28;21233;-40
2021/12/10 16:37:50;;;;;;;;;;;22.40;43.30;;;;;;6178935;28;20375;-38
2021/12/10 16:40:53;;;;;;;;;;;22.20;43.30;;;;;;6174444;28;19962;-39
2021/12/10 16:43:58;;;;;;;;;;;22.50;43.50;;;;;;6183966;28;20912;-40
2021/12/10 16:47:01;;;;;;;;;;;22.60;43.50;;;;;;6170382;28;20048;-40
2021/12/10 16:50:04;;;;;;;;;;;22.60;43.20;;;;;;6187219;28;20005;-41
2021/12/10 16:53:05;;;;;;;;;;;22.80;43.70;;;;;;6181169;28;20109;-40
2021/12/10 16:56:09;;;;;;;;;;;22.30;43.40;;;;;;6166034;28;19928;-39
2021/12/10 16:59:11;;;;;;;;;;;22.10;43.30;;;;;;6190986;28;19942;-40
2021/12/10 17:02:14;;;;;;;;;;;22.40;43.40;;;;;;6191751;28;19935;-41
2021/12/10 17:05:19;;;;;;;;;;;22.40;43.50;;;;;;6196149;28;19932;-42
2021/12/10 17:08:24;;;;;;;;;;;22.50;43.50;;;;;;6192472;28;19928;-40
2021/12/10 17:11:29;;;;;;;;;;;22.80;43.30;;;;;;6194451;28;20840;-40
2021/12/10 17:14:33;;;;;;;;;;;22.40;43.50;;;;;;6204162;28;19928;-40
2021/12/10 17:17:35;;;;;;;;;;;22.30;43.50;;;;;;6208795;28;19928;-41
2021/12/10 17:20:39;;;;;;;;;;;22.50;43.70;;;;;;6194435;28;19928;-40
2021/12/10 17:23:43;;;;;;;;;;;22.30;43.60;;;;;;6203383;28;20005;-41
2021/12/10 17:26:45;;;;;;;;;;;22.30;43.60;;;;;;6189709;28;19928;-40
2021/12/10 17:29:50;;;;;;;;;;;22.40;44.30;;;;;;6186906;28;20142;-41
2021/12/10 17:32:53;;;;;;;;;;;22.50;43.80;;;;;;6195084;28;21023;-39
2021/12/10 17:35:56;;;;;;;;;;;22.10;43.70;;;;;;6184819;28;19928;-41
2021/12/10 17:38:57;;;;;;;;;;;22.20;43.70;;;;;;6209693;28;19932;-39
2021/12/10 17:42:00;;;;;;;;;;;22.20;43.80;;;;;;6212656;28;19951;-39
2021/12/10 17:45:04;;;;;;;;;;;22.20;43.60;;;;;;6220980;28;19934;-39
2021/12/10 17:48:08;;;;;;;;;;;22.20;43.60;;;;;;6206119;28;19928;-40
2021/12/10 17:51:13;;;;;;;;;;;22.40;43.90;;;;;;6177775;28;20676;-41
2021/12/10 17:54:17;;;;;;;;;;;22.80;44.00;;;;;;6195992;28;21408;-39
2021/12/10 17:57:20;;;;;;;;;;;22.30;43.70;;;;;;6197673;28;20161;-39
2021/12/10 18:00:26;;;;;;;;;;;22.20;43.70;;;;;;6192688;28;20076;-39
2021/12/10 18:03:31;;;;;;;;;;;22.20;43.80;;;;;;6206379;28;19927;-39